sensor_id;sensor_type;location;lat;lon;timestamp;temperature;humidity
2487;DHT22;1254;49.144;8.212;2022-07-23T00:01:46;23.30;99.90
2487;DHT22;1254;49.144;8.212;2022-07-23T00:04:13;23.30;99.90
2487;DHT22;1254;49.144;8.212;2022-07-23T00:06:40;23.10;99.90
2487;DHT22;1254;49.144;8.212;2022-07-23T00:09:06;23.10;99.90
2487;DHT22;1254;49.144;8.212;2022-07-23T00:11:33;23.00;99.90
2487;DHT22;1254;49.144;8.212;2022-07-23T00:13:59;23.00;99.90
2487;DHT22;1254;49.144;8.212;2022-07-23T00:16:25;22.90;99.90
2487;DHT22;1254;49.144;8.212;2022-07-23T00:18:52;23.00;99.90
2487;DHT22;1254;49.144;8.212;2022-07-23T00:21:18;23.00;99.90
2487;DHT22;1254;49.144;8.212;2022-07-23T00:23:45;23.10;99.90
2487;DHT22;1254;49.144;8.212;2022-07-23T00:26:11;23.10;99.90
2487;DHT22;1254;49.144;8.212;2022-07-23T00:28:37;23.20;99.90
2487;DHT22;1254;49.144;8.212;2022-07-23T00:31:04;23.40;99.90
2487;DHT22;1254;49.144;8.212;2022-07-23T00:33:30;23.40;99.90
2487;DHT22;1254;49.144;8.212;2022-07-23T00:35:57;23.40;99.90
2487;DHT22;1254;49.144;8.212;2022-07-23T00:38:23;23.50;99.90
2487;DHT22;1254;49.144;8.212;2022-07-23T00:40:50;23.50;99.90
2487;DHT22;1254;49.144;8.212;2022-07-23T00:43:16;23.50;99.90
2487;DHT22;1254;49.144;8.212;2022-07-23T00:45:43;23.40;99.90
2487;DHT22;1254;49.144;8.212;2022-07-23T00:48:09;23.50;99.90
2487;DHT22;1254;49.144;8.212;2022-07-23T00:50:35;23.40;99.90
2487;DHT22;1254;49.144;8.212;2022-07-23T00:53:02;23.40;99.90
2487;DHT22;1254;49.144;8.212;2022-07-23T00:55:28;23.40;99.90
2487;DHT22;1254;49.144;8.212;2022-07-23T00:57:55;23.30;99.90
2487;DHT22;1254;49.144;8.212;2022-07-23T01:00:22;23.10;99.90
2487;DHT22;1254;49.144;8.212;2022-07-23T01:02:48;23.10;99.90
2487;DHT22;1254;49.144;8.212;2022-07-23T01:05:15;23.10;99.90
2487;DHT22;1254;49.144;8.212;2022-07-23T01:07:43;23.10;99.90
2487;DHT22;1254;49.144;8.212;2022-07-23T01:10:11;23.00;99.90
2487;DHT22;1254;49.144;8.212;2022-07-23T01:12:56;22.90;99.90
2487;DHT22;1254;49.144;8.212;2022-07-23T01:15:23;22.90;99.90
2487;DHT22;1254;49.144;8.212;2022-07-23T01:17:50;22.80;99.90
2487;DHT22;1254;49.144;8.212;2022-07-23T01:20:17;22.80;99.90
2487;DHT22;1254;49.144;8.212;2022-07-23T01:22:44;22.70;99.90
2487;DHT22;1254;49.144;8.212;2022-07-23T01:25:11;22.50;99.90
2487;DHT22;1254;49.144;8.212;2022-07-23T01:27:38;22.50;99.90
2487;DHT22;1254;49.144;8.212;2022-07-23T01:30:05;22.50;99.90
2487;DHT22;1254;49.144;8.212;2022-07-23T01:32:31;22.40;99.90
2487;DHT22;1254;49.144;8.212;2022-07-23T01:34:58;22.40;99.90
2487;DHT22;1254;49.144;8.212;2022-07-23T01:37:24;22.50;99.90
2487;DHT22;1254;49.144;8.212;2022-07-23T01:39:51;22.50;99.90
2487;DHT22;1254;49.144;8.212;2022-07-23T01:42:17;22.50;99.90
2487;DHT22;1254;49.144;8.212;2022-07-23T01:44:43;22.30;99.90
2487;DHT22;1254;49.144;8.212;2022-07-23T01:47:10;22.30;99.90
2487;DHT22;1254;49.144;8.212;2022-07-23T01:49:36;22.30;99.90
2487;DHT22;1254;49.144;8.212;2022-07-23T01:52:03;22.20;99.90
2487;DHT22;1254;49.144;8.212;2022-07-23T01:54:33;22.10;99.90
2487;DHT22;1254;49.144;8.212;2022-07-23T01:57:00;21.90;99.90
2487;DHT22;1254;49.144;8.212;2022-07-23T01:59:27;21.90;99.90
2487;DHT22;1254;49.144;8.212;2022-07-23T02:01:54;21.90;99.90
2487;DHT22;1254;49.144;8.212;2022-07-23T02:04:21;21.60;99.90
2487;DHT22;1254;49.144;8.212;2022-07-23T02:06:48;21.40;99.90
2487;DHT22;1254;49.144;8.212;2022-07-23T02:09:15;21.40;99.90
2487;DHT22;1254;49.144;8.212;2022-07-23T02:11:42;21.50;99.90
2487;DHT22;1254;49.144;8.212;2022-07-23T02:14:08;21.40;99.90
2487;DHT22;1254;49.144;8.212;2022-07-23T02:16:35;21.40;99.90
2487;DHT22;1254;49.144;8.212;2022-07-23T02:19:03;21.40;99.90
2487;DHT22;1254;49.144;8.212;2022-07-23T02:21:29;21.40;99.90
2487;DHT22;1254;49.144;8.212;2022-07-23T02:23:56;21.40;99.90
2487;DHT22;1254;49.144;8.212;2022-07-23T02:26:23;21.30;99.90
2487;DHT22;1254;49.144;8.212;2022-07-23T02:28:49;21.40;99.90
2487;DHT22;1254;49.144;8.212;2022-07-23T02:31:16;21.40;99.90
2487;DHT22;1254;49.144;8.212;2022-07-23T02:33:42;21.30;99.90
2487;DHT22;1254;49.144;8.212;2022-07-23T02:36:09;21.40;99.90
2487;DHT22;1254;49.144;8.212;2022-07-23T02:38:35;21.40;99.90
2487;DHT22;1254;49.144;8.212;2022-07-23T02:41:01;21.40;99.90
2487;DHT22;1254;49.144;8.212;2022-07-23T02:43:28;21.40;99.90
2487;DHT22;1254;49.144;8.212;2022-07-23T02:45:54;21.50;99.90
2487;DHT22;1254;49.144;8.212;2022-07-23T02:48:21;21.40;99.90
2487;DHT22;1254;49.144;8.212;2022-07-23T02:50:47;21.40;99.90
2487;DHT22;1254;49.144;8.212;2022-07-23T02:53:13;21.40;99.90
2487;DHT22;1254;49.144;8.212;2022-07-23T02:55:40;21.40;99.90
2487;DHT22;1254;49.144;8.212;2022-07-23T02:58:06;21.40;99.90
2487;DHT22;1254;49.144;8.212;2022-07-23T03:00:33;21.30;99.90
2487;DHT22;1254;49.144;8.212;2022-07-23T03:02:59;21.30;99.90
2487;DHT22;1254;49.144;8.212;2022-07-23T03:05:26;21.40;99.90
2487;DHT22;1254;49.144;8.212;2022-07-23T03:07:52;21.50;99.90
2487;DHT22;1254;49.144;8.212;2022-07-23T03:10:18;21.60;99.90
2487;DHT22;1254;49.144;8.212;2022-07-23T03:12:45;21.60;99.90
2487;DHT22;1254;49.144;8.212;2022-07-23T03:15:11;21.60;99.90
2487;DHT22;1254;49.144;8.212;2022-07-23T03:17:38;21.50;99.90
2487;DHT22;1254;49.144;8.212;2022-07-23T03:20:04;21.50;99.90
2487;DHT22;1254;49.144;8.212;2022-07-23T03:22:31;21.50;99.90
2487;DHT22;1254;49.144;8.212;2022-07-23T03:24:57;21.50;99.90
2487;DHT22;1254;49.144;8.212;2022-07-23T03:27:25;21.60;99.90
2487;DHT22;1254;49.144;8.212;2022-07-23T03:29:54;21.60;99.90
2487;DHT22;1254;49.144;8.212;2022-07-23T03:32:21;21.60;99.90
2487;DHT22;1254;49.144;8.212;2022-07-23T03:34:48;21.50;99.90
2487;DHT22;1254;49.144;8.212;2022-07-23T03:37:16;21.40;99.90
2487;DHT22;1254;49.144;8.212;2022-07-23T03:39:42;21.50;99.90
2487;DHT22;1254;49.144;8.212;2022-07-23T03:42:10;21.30;99.90
2487;DHT22;1254;49.144;8.212;2022-07-23T03:44:36;21.20;99.90
2487;DHT22;1254;49.144;8.212;2022-07-23T03:47:04;21.00;99.90
2487;DHT22;1254;49.144;8.212;2022-07-23T03:49:31;21.00;99.90
2487;DHT22;1254;49.144;8.212;2022-07-23T03:51:59;20.90;99.90
2487;DHT22;1254;49.144;8.212;2022-07-23T03:54:26;20.90;99.90
2487;DHT22;1254;49.144;8.212;2022-07-23T03:56:52;20.90;99.90
2487;DHT22;1254;49.144;8.212;2022-07-23T03:59:19;21.00;99.90
2487;DHT22;1254;49.144;8.212;2022-07-23T04:01:45;21.10;99.90
2487;DHT22;1254;49.144;8.212;2022-07-23T04:04:11;21.20;99.90
2487;DHT22;1254;49.144;8.212;2022-07-23T04:06:38;21.10;99.90
2487;DHT22;1254;49.144;8.212;2022-07-23T04:09:04;21.30;99.90
2487;DHT22;1254;49.144;8.212;2022-07-23T04:11:31;21.20;99.90
2487;DHT22;1254;49.144;8.212;2022-07-23T04:13:57;21.20;99.90
2487;DHT22;1254;49.144;8.212;2022-07-23T04:16:23;21.20;99.90
2487;DHT22;1254;49.144;8.212;2022-07-23T04:18:50;21.30;99.90
2487;DHT22;1254;49.144;8.212;2022-07-23T04:21:16;21.30;99.90
2487;DHT22;1254;49.144;8.212;2022-07-23T04:23:43;21.30;99.90
2487;DHT22;1254;49.144;8.212;2022-07-23T04:26:09;21.30;99.90
2487;DHT22;1254;49.144;8.212;2022-07-23T04:28:35;21.30;99.90
2487;DHT22;1254;49.144;8.212;2022-07-23T04:31:02;21.30;99.90
2487;DHT22;1254;49.144;8.212;2022-07-23T04:33:28;21.30;99.90
2487;DHT22;1254;49.144;8.212;2022-07-23T04:35:55;21.20;99.90
2487;DHT22;1254;49.144;8.212;2022-07-23T04:38:21;21.20;99.90
2487;DHT22;1254;49.144;8.212;2022-07-23T04:40:47;21.30;99.90
2487;DHT22;1254;49.144;8.212;2022-07-23T04:43:14;21.40;99.90
2487;DHT22;1254;49.144;8.212;2022-07-23T04:45:40;21.40;99.90
2487;DHT22;1254;49.144;8.212;2022-07-23T04:48:07;21.30;99.90
2487;DHT22;1254;49.144;8.212;2022-07-23T04:50:33;21.30;99.90
2487;DHT22;1254;49.144;8.212;2022-07-23T04:53:00;21.30;99.90
2487;DHT22;1254;49.144;8.212;2022-07-23T04:55:26;21.40;99.90
2487;DHT22;1254;49.144;8.212;2022-07-23T04:57:53;21.30;99.90
2487;DHT22;1254;49.144;8.212;2022-07-23T05:00:19;21.40;99.90
2487;DHT22;1254;49.144;8.212;2022-07-23T05:02:45;21.30;99.90
2487;DHT22;1254;49.144;8.212;2022-07-23T05:05:12;21.30;99.90
2487;DHT22;1254;49.144;8.212;2022-07-23T05:07:39;21.30;99.90
2487;DHT22;1254;49.144;8.212;2022-07-23T05:10:05;21.40;99.90
2487;DHT22;1254;49.144;8.212;2022-07-23T05:12:32;21.40;99.90
2487;DHT22;1254;49.144;8.212;2022-07-23T05:14:58;21.30;99.90
2487;DHT22;1254;49.144;8.212;2022-07-23T05:17:25;21.40;99.90
2487;DHT22;1254;49.144;8.212;2022-07-23T05:19:52;21.30;99.90
2487;DHT22;1254;49.144;8.212;2022-07-23T05:22:18;21.30;99.90
2487;DHT22;1254;49.144;8.212;2022-07-23T05:24:44;21.20;99.90
2487;DHT22;1254;49.144;8.212;2022-07-23T05:27:11;21.20;99.90
2487;DHT22;1254;49.144;8.212;2022-07-23T05:29:37;21.20;99.90
2487;DHT22;1254;49.144;8.212;2022-07-23T05:32:04;21.20;99.90
2487;DHT22;1254;49.144;8.212;2022-07-23T05:34:30;21.30;99.90
2487;DHT22;1254;49.144;8.212;2022-07-23T05:36:57;21.30;99.90
2487;DHT22;1254;49.144;8.212;2022-07-23T05:39:23;21.40;99.90
2487;DHT22;1254;49.144;8.212;2022-07-23T05:41:50;21.40;99.90
2487;DHT22;1254;49.144;8.212;2022-07-23T05:44:16;21.40;99.90
2487;DHT22;1254;49.144;8.212;2022-07-23T05:46:42;21.40;99.90
2487;DHT22;1254;49.144;8.212;2022-07-23T05:49:09;21.40;99.90
2487;DHT22;1254;49.144;8.212;2022-07-23T05:51:35;21.50;99.90
2487;DHT22;1254;49.144;8.212;2022-07-23T05:54:02;21.50;99.90
2487;DHT22;1254;49.144;8.212;2022-07-23T05:56:28;21.20;99.90
2487;DHT22;1254;49.144;8.212;2022-07-23T05:58:55;20.80;99.90
2487;DHT22;1254;49.144;8.212;2022-07-23T06:01:21;20.60;99.90
2487;DHT22;1254;49.144;8.212;2022-07-23T06:03:47;20.50;99.90
2487;DHT22;1254;49.144;8.212;2022-07-23T06:06:14;20.60;99.90
2487;DHT22;1254;49.144;8.212;2022-07-23T06:08:40;20.70;99.90
2487;DHT22;1254;49.144;8.212;2022-07-23T06:11:07;20.70;99.90
2487;DHT22;1254;49.144;8.212;2022-07-23T06:13:33;20.70;99.90
2487;DHT22;1254;49.144;8.212;2022-07-23T06:15:59;20.90;99.90
2487;DHT22;1254;49.144;8.212;2022-07-23T06:18:26;21.00;99.90
2487;DHT22;1254;49.144;8.212;2022-07-23T06:20:52;21.20;99.90
2487;DHT22;1254;49.144;8.212;2022-07-23T06:23:19;21.30;99.90
2487;DHT22;1254;49.144;8.212;2022-07-23T06:25:45;21.30;99.90
2487;DHT22;1254;49.144;8.212;2022-07-23T06:28:12;21.30;99.90
2487;DHT22;1254;49.144;8.212;2022-07-23T06:30:38;21.50;99.90
2487;DHT22;1254;49.144;8.212;2022-07-23T06:33:05;21.70;99.90
2487;DHT22;1254;49.144;8.212;2022-07-23T06:35:31;21.80;99.90
2487;DHT22;1254;49.144;8.212;2022-07-23T06:37:59;21.80;99.90
2487;DHT22;1254;49.144;8.212;2022-07-23T06:40:26;21.70;99.90
2487;DHT22;1254;49.144;8.212;2022-07-23T06:42:52;21.60;99.90
2487;DHT22;1254;49.144;8.212;2022-07-23T06:45:19;21.50;99.90
2487;DHT22;1254;49.144;8.212;2022-07-23T06:47:45;21.50;99.90
2487;DHT22;1254;49.144;8.212;2022-07-23T06:50:12;21.70;99.90
2487;DHT22;1254;49.144;8.212;2022-07-23T06:52:38;21.80;99.90
2487;DHT22;1254;49.144;8.212;2022-07-23T06:55:05;21.70;99.90
2487;DHT22;1254;49.144;8.212;2022-07-23T06:57:31;21.90;99.90
2487;DHT22;1254;49.144;8.212;2022-07-23T06:59:58;22.10;99.90
2487;DHT22;1254;49.144;8.212;2022-07-23T07:02:24;22.10;99.90
2487;DHT22;1254;49.144;8.212;2022-07-23T07:04:51;22.10;99.90
2487;DHT22;1254;49.144;8.212;2022-07-23T07:07:17;22.20;99.90
2487;DHT22;1254;49.144;8.212;2022-07-23T07:09:43;22.50;99.90
2487;DHT22;1254;49.144;8.212;2022-07-23T07:12:11;22.70;99.90
2487;DHT22;1254;49.144;8.212;2022-07-23T07:14:38;22.60;99.90
2487;DHT22;1254;49.144;8.212;2022-07-23T07:17:04;22.80;99.90
2487;DHT22;1254;49.144;8.212;2022-07-23T07:19:31;22.40;99.90
2487;DHT22;1254;49.144;8.212;2022-07-23T07:21:57;22.70;99.90
2487;DHT22;1254;49.144;8.212;2022-07-23T07:24:23;22.70;99.90
2487;DHT22;1254;49.144;8.212;2022-07-23T07:26:50;23.00;99.90
2487;DHT22;1254;49.144;8.212;2022-07-23T07:29:16;23.00;99.90
2487;DHT22;1254;49.144;8.212;2022-07-23T07:31:43;23.00;99.90
2487;DHT22;1254;49.144;8.212;2022-07-23T07:34:09;23.50;99.90
2487;DHT22;1254;49.144;8.212;2022-07-23T07:36:36;23.60;99.90
2487;DHT22;1254;49.144;8.212;2022-07-23T07:39:04;23.80;99.90
2487;DHT22;1254;49.144;8.212;2022-07-23T07:41:31;23.90;99.90
2487;DHT22;1254;49.144;8.212;2022-07-23T07:43:57;23.70;99.90
2487;DHT22;1254;49.144;8.212;2022-07-23T07:46:24;23.60;99.90
2487;DHT22;1254;49.144;8.212;2022-07-23T07:48:53;23.70;99.90
2487;DHT22;1254;49.144;8.212;2022-07-23T07:51:20;24.00;99.90
2487;DHT22;1254;49.144;8.212;2022-07-23T07:53:46;24.30;99.90
2487;DHT22;1254;49.144;8.212;2022-07-23T07:56:13;23.90;99.90
2487;DHT22;1254;49.144;8.212;2022-07-23T07:58:39;23.70;99.90
2487;DHT22;1254;49.144;8.212;2022-07-23T08:01:06;24.00;99.90
2487;DHT22;1254;49.144;8.212;2022-07-23T08:03:32;24.40;99.90
2487;DHT22;1254;49.144;8.212;2022-07-23T08:05:59;24.50;99.90
2487;DHT22;1254;49.144;8.212;2022-07-23T08:08:25;24.80;99.90
2487;DHT22;1254;49.144;8.212;2022-07-23T08:10:52;24.90;99.90
2487;DHT22;1254;49.144;8.212;2022-07-23T08:13:18;24.90;99.90
2487;DHT22;1254;49.144;8.212;2022-07-23T08:15:45;24.60;99.90
2487;DHT22;1254;49.144;8.212;2022-07-23T08:18:11;24.50;99.90
2487;DHT22;1254;49.144;8.212;2022-07-23T08:20:39;24.80;99.90
2487;DHT22;1254;49.144;8.212;2022-07-23T08:23:07;25.10;99.90
2487;DHT22;1254;49.144;8.212;2022-07-23T08:25:41;25.00;99.90
2487;DHT22;1254;49.144;8.212;2022-07-23T08:28:09;25.20;99.90
2487;DHT22;1254;49.144;8.212;2022-07-23T08:30:37;25.50;99.90
2487;DHT22;1254;49.144;8.212;2022-07-23T08:33:06;25.40;99.90
2487;DHT22;1254;49.144;8.212;2022-07-23T08:35:35;25.00;99.90
2487;DHT22;1254;49.144;8.212;2022-07-23T08:38:05;25.50;99.90
2487;DHT22;1254;49.144;8.212;2022-07-23T08:40:34;25.40;99.90
2487;DHT22;1254;49.144;8.212;2022-07-23T08:43:08;25.50;99.90
2487;DHT22;1254;49.144;8.212;2022-07-23T08:45:40;25.40;99.90
2487;DHT22;1254;49.144;8.212;2022-07-23T08:48:08;25.80;99.90
2487;DHT22;1254;49.144;8.212;2022-07-23T08:50:35;25.90;99.90
2487;DHT22;1254;49.144;8.212;2022-07-23T08:53:07;25.50;99.90
2487;DHT22;1254;49.144;8.212;2022-07-23T08:55:34;25.20;99.90
2487;DHT22;1254;49.144;8.212;2022-07-23T08:58:01;25.00;99.90
2487;DHT22;1254;49.144;8.212;2022-07-23T09:00:29;25.30;99.90
2487;DHT22;1254;49.144;8.212;2022-07-23T09:02:55;25.80;99.90
2487;DHT22;1254;49.144;8.212;2022-07-23T09:05:22;25.90;99.90
2487;DHT22;1254;49.144;8.212;2022-07-23T09:08:18;25.80;99.90
2487;DHT22;1254;49.144;8.212;2022-07-23T09:10:52;25.60;99.90
2487;DHT22;1254;49.144;8.212;2022-07-23T09:19:06;26.00;99.90
2487;DHT22;1254;49.144;8.212;2022-07-23T09:21:35;25.90;99.90
2487;DHT22;1254;49.144;8.212;2022-07-23T09:24:09;26.40;99.90
2487;DHT22;1254;49.144;8.212;2022-07-23T09:26:47;26.40;99.90
2487;DHT22;1254;49.144;8.212;2022-07-23T09:29:24;26.30;99.90
2487;DHT22;1254;49.144;8.212;2022-07-23T09:32:01;26.00;99.90
2487;DHT22;1254;49.144;8.212;2022-07-23T09:34:30;26.40;99.90
2487;DHT22;1254;49.144;8.212;2022-07-23T09:37:19;26.30;99.90
2487;DHT22;1254;49.144;8.212;2022-07-23T09:39:47;26.40;99.90
2487;DHT22;1254;49.144;8.212;2022-07-23T09:42:17;26.60;99.90
2487;DHT22;1254;49.144;8.212;2022-07-23T09:44:49;26.60;99.90
2487;DHT22;1254;49.144;8.212;2022-07-23T09:47:17;26.90;99.90
2487;DHT22;1254;49.144;8.212;2022-07-23T09:52:42;26.40;99.90
2487;DHT22;1254;49.144;8.212;2022-07-23T09:55:09;26.70;99.90
2487;DHT22;1254;49.144;8.212;2022-07-23T09:57:36;26.90;99.90
2487;DHT22;1254;49.144;8.212;2022-07-23T10:00:05;27.40;99.90
2487;DHT22;1254;49.144;8.212;2022-07-23T10:02:33;27.40;99.90
2487;DHT22;1254;49.144;8.212;2022-07-23T10:05:01;27.10;99.90
2487;DHT22;1254;49.144;8.212;2022-07-23T10:07:32;27.00;99.90
2487;DHT22;1254;49.144;8.212;2022-07-23T10:10:00;27.70;99.90
2487;DHT22;1254;49.144;8.212;2022-07-23T10:12:27;27.70;99.90
2487;DHT22;1254;49.144;8.212;2022-07-23T10:14:53;27.30;99.90
2487;DHT22;1254;49.144;8.212;2022-07-23T10:17:20;26.50;99.90
2487;DHT22;1254;49.144;8.212;2022-07-23T10:19:47;26.60;99.90
2487;DHT22;1254;49.144;8.212;2022-07-23T10:27:39;28.30;99.90
2487;DHT22;1254;49.144;8.212;2022-07-23T10:30:31;27.70;99.90
2487;DHT22;1254;49.144;8.212;2022-07-23T10:33:32;27.40;99.90
2487;DHT22;1254;49.144;8.212;2022-07-23T10:36:19;27.70;99.90
2487;DHT22;1254;49.144;8.212;2022-07-23T10:38:53;28.00;99.90
2487;DHT22;1254;49.144;8.212;2022-07-23T10:41:39;28.40;99.90
2487;DHT22;1254;49.144;8.212;2022-07-23T10:44:10;28.70;99.90
2487;DHT22;1254;49.144;8.212;2022-07-23T10:47:03;28.60;99.90
2487;DHT22;1254;49.144;8.212;2022-07-23T10:49:39;29.40;99.90
2487;DHT22;1254;49.144;8.212;2022-07-23T10:54:42;29.80;99.90
2487;DHT22;1254;49.144;8.212;2022-07-23T10:57:10;29.80;99.90
2487;DHT22;1254;49.144;8.212;2022-07-23T11:02:29;28.60;99.90
2487;DHT22;1254;49.144;8.212;2022-07-23T11:05:10;29.00;99.90
2487;DHT22;1254;49.144;8.212;2022-07-23T11:24:12;30.60;99.90
2487;DHT22;1254;49.144;8.212;2022-07-23T11:32:03;30.30;99.90
2487;DHT22;1254;49.144;8.212;2022-07-23T11:34:34;31.20;99.90
2487;DHT22;1254;49.144;8.212;2022-07-23T11:37:07;31.10;99.90
2487;DHT22;1254;49.144;8.212;2022-07-23T11:39:34;30.30;99.90
2487;DHT22;1254;49.144;8.212;2022-07-23T11:42:02;30.30;99.90
2487;DHT22;1254;49.144;8.212;2022-07-23T11:44:35;30.70;99.90
2487;DHT22;1254;49.144;8.212;2022-07-23T11:47:11;31.60;99.90
2487;DHT22;1254;49.144;8.212;2022-07-23T11:49:55;31.30;99.90
2487;DHT22;1254;49.144;8.212;2022-07-23T11:52:23;32.40;99.90
2487;DHT22;1254;49.144;8.212;2022-07-23T11:54:55;31.00;99.90
2487;DHT22;1254;49.144;8.212;2022-07-23T11:57:30;30.60;99.90
2487;DHT22;1254;49.144;8.212;2022-07-23T12:02:48;29.80;99.90
2487;DHT22;1254;49.144;8.212;2022-07-23T12:05:18;29.90;99.90
2487;DHT22;1254;49.144;8.212;2022-07-23T12:07:45;30.30;99.90
2487;DHT22;1254;49.144;8.212;2022-07-23T12:10:26;30.30;99.90
2487;DHT22;1254;49.144;8.212;2022-07-23T12:12:58;30.20;99.90
2487;DHT22;1254;49.144;8.212;2022-07-23T12:15:33;31.20;99.90
2487;DHT22;1254;49.144;8.212;2022-07-23T12:18:01;31.90;99.90
2487;DHT22;1254;49.144;8.212;2022-07-23T12:20:41;31.40;99.90
2487;DHT22;1254;49.144;8.212;2022-07-23T12:23:10;30.40;99.90
2487;DHT22;1254;49.144;8.212;2022-07-23T12:25:39;29.60;99.90
2487;DHT22;1254;49.144;8.212;2022-07-23T12:28:12;29.10;99.90
2487;DHT22;1254;49.144;8.212;2022-07-23T12:33:06;30.60;99.90
2487;DHT22;1254;49.144;8.212;2022-07-23T12:35:44;31.40;99.90
2487;DHT22;1254;49.144;8.212;2022-07-23T12:38:19;32.70;99.90
2487;DHT22;1254;49.144;8.212;2022-07-23T12:40:54;32.30;99.90
2487;DHT22;1254;49.144;8.212;2022-07-23T12:43:25;32.40;99.90
2487;DHT22;1254;49.144;8.212;2022-07-23T12:46:01;32.20;99.90
2487;DHT22;1254;49.144;8.212;2022-07-23T12:51:02;34.10;99.90
2487;DHT22;1254;49.144;8.212;2022-07-23T12:53:36;33.30;99.90
2487;DHT22;1254;49.144;8.212;2022-07-23T12:56:09;32.30;99.90
2487;DHT22;1254;49.144;8.212;2022-07-23T12:58:41;32.70;99.90
2487;DHT22;1254;49.144;8.212;2022-07-23T13:01:08;33.10;99.90
2487;DHT22;1254;49.144;8.212;2022-07-23T13:03:38;34.10;99.90
2487;DHT22;1254;49.144;8.212;2022-07-23T13:06:10;33.20;99.90
2487;DHT22;1254;49.144;8.212;2022-07-23T13:08:38;33.60;99.90
2487;DHT22;1254;49.144;8.212;2022-07-23T13:11:06;32.70;99.90
2487;DHT22;1254;49.144;8.212;2022-07-23T13:13:34;33.30;99.90
2487;DHT22;1254;49.144;8.212;2022-07-23T13:16:02;33.80;99.90
2487;DHT22;1254;49.144;8.212;2022-07-23T13:18:30;33.10;99.90
2487;DHT22;1254;49.144;8.212;2022-07-23T13:20:57;33.00;99.90
2487;DHT22;1254;49.144;8.212;2022-07-23T13:23:23;32.00;99.90
2487;DHT22;1254;49.144;8.212;2022-07-23T13:25:51;32.50;99.90
2487;DHT22;1254;49.144;8.212;2022-07-23T13:28:19;32.90;99.90
2487;DHT22;1254;49.144;8.212;2022-07-23T13:30:46;33.40;99.90
2487;DHT22;1254;49.144;8.212;2022-07-23T13:33:13;32.90;99.90
2487;DHT22;1254;49.144;8.212;2022-07-23T13:35:40;33.30;99.90
2487;DHT22;1254;49.144;8.212;2022-07-23T13:38:07;33.50;99.90
2487;DHT22;1254;49.144;8.212;2022-07-23T13:40:38;34.30;99.90
2487;DHT22;1254;49.144;8.212;2022-07-23T13:43:06;33.40;99.90
2487;DHT22;1254;49.144;8.212;2022-07-23T13:45:33;33.90;99.90
2487;DHT22;1254;49.144;8.212;2022-07-23T13:48:00;34.40;99.90
2487;DHT22;1254;49.144;8.212;2022-07-23T13:50:27;34.00;99.90
2487;DHT22;1254;49.144;8.212;2022-07-23T13:52:53;31.70;99.90
2487;DHT22;1254;49.144;8.212;2022-07-23T13:55:20;32.50;99.90
2487;DHT22;1254;49.144;8.212;2022-07-23T13:57:46;32.00;99.90
2487;DHT22;1254;49.144;8.212;2022-07-23T14:00:13;31.80;99.90
2487;DHT22;1254;49.144;8.212;2022-07-23T14:02:40;31.70;99.90
2487;DHT22;1254;49.144;8.212;2022-07-23T14:05:09;31.50;99.90
2487;DHT22;1254;49.144;8.212;2022-07-23T14:07:36;31.20;99.90
2487;DHT22;1254;49.144;8.212;2022-07-23T14:10:04;31.30;99.90
2487;DHT22;1254;49.144;8.212;2022-07-23T14:12:31;30.50;99.90
2487;DHT22;1254;49.144;8.212;2022-07-23T14:14:58;30.50;99.90
2487;DHT22;1254;49.144;8.212;2022-07-23T14:17:24;30.40;99.90
2487;DHT22;1254;49.144;8.212;2022-07-23T14:19:51;30.50;99.90
2487;DHT22;1254;49.144;8.212;2022-07-23T14:22:17;30.50;99.90
2487;DHT22;1254;49.144;8.212;2022-07-23T14:24:44;30.80;99.90
2487;DHT22;1254;49.144;8.212;2022-07-23T14:27:10;30.90;99.90
2487;DHT22;1254;49.144;8.212;2022-07-23T14:29:37;32.10;99.90
2487;DHT22;1254;49.144;8.212;2022-07-23T14:32:04;33.30;99.90
2487;DHT22;1254;49.144;8.212;2022-07-23T14:34:30;33.70;99.90
2487;DHT22;1254;49.144;8.212;2022-07-23T14:36:58;33.70;99.90
2487;DHT22;1254;49.144;8.212;2022-07-23T14:39:24;33.30;99.90
2487;DHT22;1254;49.144;8.212;2022-07-23T14:41:51;31.50;99.90
2487;DHT22;1254;49.144;8.212;2022-07-23T14:44:17;30.70;99.90
2487;DHT22;1254;49.144;8.212;2022-07-23T14:46:44;30.70;99.90
2487;DHT22;1254;49.144;8.212;2022-07-23T14:49:10;30.60;99.90
2487;DHT22;1254;49.144;8.212;2022-07-23T14:51:37;31.10;99.90
2487;DHT22;1254;49.144;8.212;2022-07-23T14:54:04;32.00;99.90
2487;DHT22;1254;49.144;8.212;2022-07-23T14:56:31;32.70;99.90
2487;DHT22;1254;49.144;8.212;2022-07-23T14:58:59;34.30;99.90
2487;DHT22;1254;49.144;8.212;2022-07-23T15:01:26;34.50;99.90
2487;DHT22;1254;49.144;8.212;2022-07-23T15:03:52;34.90;99.90
2487;DHT22;1254;49.144;8.212;2022-07-23T15:06:19;35.30;99.90
2487;DHT22;1254;49.144;8.212;2022-07-23T15:08:46;35.50;99.90
2487;DHT22;1254;49.144;8.212;2022-07-23T15:11:13;34.40;99.90
2487;DHT22;1254;49.144;8.212;2022-07-23T15:13:39;33.50;99.90
2487;DHT22;1254;49.144;8.212;2022-07-23T15:16:07;33.30;99.90
2487;DHT22;1254;49.144;8.212;2022-07-23T15:18:34;34.60;99.90
2487;DHT22;1254;49.144;8.212;2022-07-23T15:21:01;33.60;99.90
2487;DHT22;1254;49.144;8.212;2022-07-23T15:23:28;32.70;99.90
2487;DHT22;1254;49.144;8.212;2022-07-23T15:25:56;31.70;99.90
2487;DHT22;1254;49.144;8.212;2022-07-23T15:28:23;32.20;99.90
2487;DHT22;1254;49.144;8.212;2022-07-23T15:30:50;33.30;99.90
2487;DHT22;1254;49.144;8.212;2022-07-23T15:33:19;34.20;99.90
2487;DHT22;1254;49.144;8.212;2022-07-23T15:35:45;34.00;99.90
2487;DHT22;1254;49.144;8.212;2022-07-23T15:38:13;34.20;99.90
2487;DHT22;1254;49.144;8.212;2022-07-23T15:40:39;33.50;99.90
2487;DHT22;1254;49.144;8.212;2022-07-23T15:43:06;33.20;99.90
2487;DHT22;1254;49.144;8.212;2022-07-23T15:45:33;34.50;99.90
2487;DHT22;1254;49.144;8.212;2022-07-23T15:47:59;35.10;99.90
2487;DHT22;1254;49.144;8.212;2022-07-23T15:50:26;36.00;99.90
2487;DHT22;1254;49.144;8.212;2022-07-23T15:52:52;37.20;99.90
2487;DHT22;1254;49.144;8.212;2022-07-23T15:55:18;36.80;99.90
2487;DHT22;1254;49.144;8.212;2022-07-23T15:57:45;34.40;99.90
2487;DHT22;1254;49.144;8.212;2022-07-23T16:00:12;34.30;99.90
2487;DHT22;1254;49.144;8.212;2022-07-23T16:02:38;35.30;99.90
2487;DHT22;1254;49.144;8.212;2022-07-23T16:05:05;35.20;99.90
2487;DHT22;1254;49.144;8.212;2022-07-23T16:07:32;35.40;99.90
2487;DHT22;1254;49.144;8.212;2022-07-23T16:10:00;35.60;99.90
2487;DHT22;1254;49.144;8.212;2022-07-23T16:12:27;36.80;99.90
2487;DHT22;1254;49.144;8.212;2022-07-23T16:14:53;36.00;99.90
2487;DHT22;1254;49.144;8.212;2022-07-23T16:17:20;36.90;99.90
2487;DHT22;1254;49.144;8.212;2022-07-23T16:19:46;35.20;99.90
2487;DHT22;1254;49.144;8.212;2022-07-23T16:22:12;35.90;99.90
2487;DHT22;1254;49.144;8.212;2022-07-23T16:24:42;34.50;99.90
2487;DHT22;1254;49.144;8.212;2022-07-23T16:27:10;31.90;99.90
2487;DHT22;1254;49.144;8.212;2022-07-23T16:29:37;31.20;99.90
2487;DHT22;1254;49.144;8.212;2022-07-23T16:32:04;32.30;99.90
2487;DHT22;1254;49.144;8.212;2022-07-23T16:34:30;33.30;99.90
2487;DHT22;1254;49.144;8.212;2022-07-23T16:36:57;33.90;99.90
2487;DHT22;1254;49.144;8.212;2022-07-23T16:39:23;36.00;99.90
2487;DHT22;1254;49.144;8.212;2022-07-23T16:41:50;34.80;99.90
2487;DHT22;1254;49.144;8.212;2022-07-23T16:44:16;34.30;99.90
2487;DHT22;1254;49.144;8.212;2022-07-23T16:46:43;33.50;99.90
2487;DHT22;1254;49.144;8.212;2022-07-23T16:49:09;33.90;99.90
2487;DHT22;1254;49.144;8.212;2022-07-23T16:51:36;33.00;99.90
2487;DHT22;1254;49.144;8.212;2022-07-23T16:54:03;34.60;99.90
2487;DHT22;1254;49.144;8.212;2022-07-23T16:56:29;34.70;99.90